Westfield, NJ (07090)

2:48 PM EST on March 02, 2015 (GMT -0500)
Garwood | Change Station
CLOSE
Current Station
Personal Weather Station
Location: Garwood, NJ
Elevation: 102 ft
Nearby Weather Stations

Elev 102 ft 40.65 °N, 74.33 °W | Updated 43 seconds ago

Clear
Clear
45.5 °F
Feels Like 44 °F
N
3.7
Wind Variable Wind from West

Today
High -- | Low -- °F
--% Chance of Precip.
Yesterday
High -- | Low -- °F
Precip. -- in
6:30 AM 5:49 PM
Waxing Gibbous, 92% visible
Pressure 30.18 in
Visibility 10.0 miles
Clouds Clear
Windchill 44 °F
Dew Point 12 °F
Humidity 25%
Rainfall 0.22 in
Snow Depth Not available.
UV 3 out of 12
Pollen .50 out of 12
Air Quality Not available.
Flu Activity Not available.
METAR KLDJ 021935Z AUTO 33011G16KT 10SM CLR 06/M08 A3018 RMK AO2 T00591084

More Conditions Fewer Conditions

Pressure 30.18 in
Visibility 10.0 miles
Clouds Clear
Windchill 44 °F
Dew Point 12 °F
Humidity 25%
Rainfall 0.22 in
Snow Depth Not available.
UV 3 out of 12
Pollen .50 out of 12
Air Quality Not available.
Flu Activity Not available.
METAR KLDJ 021935Z AUTO 33011G16KT 10SM CLR 06/M08 A3018 RMK AO2 T00591084

More Conditions Fewer Conditions

10-Day Weather Forecast

Almanac

Astronomy

Mar. 02, 2015 Rise Set
Actual Time
Civil Twilight
Nautical Twilight
Astronomical Twilight
Moon
Length of Visible Light
Length of Day
Tomorrow will be .
, % of the Moon is Illuminated

Today's Extremes

State Highs State Lows

Community

WunderPhotos

Upload Photos

1,801,922 photos uploaded!

WunderBlogs® & News

Nearby

Air Quality

  Air Quality AQ Index Pollutant
Not available.

Snow Depth

Station Depth Elevation

Earthquake Activity

City Distance Mag. Time & Date
Minimum magnitude displayed is 2.5.

Coastal Water Temperatures

Place Temperature

Nearby Weather Stations